sensor_id;sensor_type;location;lat;lon;timestamp;temperature;humidity
21331;DHT22;10824;51.632;4.950;2024-01-15T00:00:25;2.20;99.90
21331;DHT22;10824;51.632;4.950;2024-01-15T00:02:57;2.10;99.90
21331;DHT22;10824;51.632;4.950;2024-01-15T00:05:28;2.20;99.90
21331;DHT22;10824;51.632;4.950;2024-01-15T00:07:57;2.20;99.90
21331;DHT22;10824;51.632;4.950;2024-01-15T00:10:25;2.20;99.90
21331;DHT22;10824;51.632;4.950;2024-01-15T00:12:55;2.10;99.90
21331;DHT22;10824;51.632;4.950;2024-01-15T00:15:23;2.20;99.90
21331;DHT22;10824;51.632;4.950;2024-01-15T00:17:52;2.20;99.90
21331;DHT22;10824;51.632;4.950;2024-01-15T00:20:19;2.00;99.90
21331;DHT22;10824;51.632;4.950;2024-01-15T00:22:47;2.00;99.90
21331;DHT22;10824;51.632;4.950;2024-01-15T00:25:16;2.00;99.90
21331;DHT22;10824;51.632;4.950;2024-01-15T00:27:43;1.90;99.90
21331;DHT22;10824;51.632;4.950;2024-01-15T00:30:11;1.90;99.90
21331;DHT22;10824;51.632;4.950;2024-01-15T00:32:40;1.80;99.90
21331;DHT22;10824;51.632;4.950;2024-01-15T00:35:07;1.80;99.90
21331;DHT22;10824;51.632;4.950;2024-01-15T00:37:35;1.80;99.90
21331;DHT22;10824;51.632;4.950;2024-01-15T00:40:04;1.80;99.90
21331;DHT22;10824;51.632;4.950;2024-01-15T00:42:32;1.80;99.90
21331;DHT22;10824;51.632;4.950;2024-01-15T00:44:59;1.80;99.90
21331;DHT22;10824;51.632;4.950;2024-01-15T00:47:27;1.80;99.90
21331;DHT22;10824;51.632;4.950;2024-01-15T00:49:54;1.70;99.90
21331;DHT22;10824;51.632;4.950;2024-01-15T00:52:22;1.80;99.90
21331;DHT22;10824;51.632;4.950;2024-01-15T00:54:51;1.80;99.90
21331;DHT22;10824;51.632;4.950;2024-01-15T00:57:18;1.70;99.90
21331;DHT22;10824;51.632;4.950;2024-01-15T00:59:47;1.80;99.90
21331;DHT22;10824;51.632;4.950;2024-01-15T01:02:14;1.80;99.90
21331;DHT22;10824;51.632;4.950;2024-01-15T01:04:42;1.80;99.90
21331;DHT22;10824;51.632;4.950;2024-01-15T01:07:10;1.80;99.90
21331;DHT22;10824;51.632;4.950;2024-01-15T01:09:39;1.70;99.90
21331;DHT22;10824;51.632;4.950;2024-01-15T01:12:07;1.70;99.90
21331;DHT22;10824;51.632;4.950;2024-01-15T01:14:34;1.70;99.90
21331;DHT22;10824;51.632;4.950;2024-01-15T01:17:02;1.70;99.90
21331;DHT22;10824;51.632;4.950;2024-01-15T01:19:29;1.70;99.90
21331;DHT22;10824;51.632;4.950;2024-01-15T01:21:58;1.60;99.90
21331;DHT22;10824;51.632;4.950;2024-01-15T01:24:25;1.60;99.90
21331;DHT22;10824;51.632;4.950;2024-01-15T01:26:53;1.60;99.90
21331;DHT22;10824;51.632;4.950;2024-01-15T01:29:22;1.60;99.90
21331;DHT22;10824;51.632;4.950;2024-01-15T01:31:50;1.60;99.90
21331;DHT22;10824;51.632;4.950;2024-01-15T01:34:17;1.60;99.90
21331;DHT22;10824;51.632;4.950;2024-01-15T01:36:48;1.60;99.90
21331;DHT22;10824;51.632;4.950;2024-01-15T01:39:15;1.60;99.90
21331;DHT22;10824;51.632;4.950;2024-01-15T01:41:42;1.70;99.90
21331;DHT22;10824;51.632;4.950;2024-01-15T01:44:10;1.70;99.90
21331;DHT22;10824;51.632;4.950;2024-01-15T01:46:37;1.80;99.90
21331;DHT22;10824;51.632;4.950;2024-01-15T01:49:09;1.80;99.90
21331;DHT22;10824;51.632;4.950;2024-01-15T01:51:37;1.80;99.90
21331;DHT22;10824;51.632;4.950;2024-01-15T01:54:08;1.80;99.90
21331;DHT22;10824;51.632;4.950;2024-01-15T01:56:36;1.80;99.90
21331;DHT22;10824;51.632;4.950;2024-01-15T01:59:04;1.80;99.90
21331;DHT22;10824;51.632;4.950;2024-01-15T02:01:35;1.80;99.90
21331;DHT22;10824;51.632;4.950;2024-01-15T02:04:04;1.80;99.90
21331;DHT22;10824;51.632;4.950;2024-01-15T02:06:31;1.70;99.90
21331;DHT22;10824;51.632;4.950;2024-01-15T02:08:59;1.70;99.90
21331;DHT22;10824;51.632;4.950;2024-01-15T02:11:28;1.60;99.90
21331;DHT22;10824;51.632;4.950;2024-01-15T02:13:58;1.70;99.90
21331;DHT22;10824;51.632;4.950;2024-01-15T02:16:25;1.70;99.90
21331;DHT22;10824;51.632;4.950;2024-01-15T02:18:53;1.70;99.90
21331;DHT22;10824;51.632;4.950;2024-01-15T02:21:23;1.60;99.90
21331;DHT22;10824;51.632;4.950;2024-01-15T02:23:53;1.60;99.90
21331;DHT22;10824;51.632;4.950;2024-01-15T02:26:23;1.50;99.90
21331;DHT22;10824;51.632;4.950;2024-01-15T02:28:51;1.50;99.90
21331;DHT22;10824;51.632;4.950;2024-01-15T02:31:18;1.60;99.90
21331;DHT22;10824;51.632;4.950;2024-01-15T02:33:45;1.70;99.90
21331;DHT22;10824;51.632;4.950;2024-01-15T02:36:13;1.80;99.90
21331;DHT22;10824;51.632;4.950;2024-01-15T02:38:41;1.90;99.90
21331;DHT22;10824;51.632;4.950;2024-01-15T02:41:09;1.90;99.90
21331;DHT22;10824;51.632;4.950;2024-01-15T02:43:36;1.90;99.90
21331;DHT22;10824;51.632;4.950;2024-01-15T02:46:03;1.90;99.90
21331;DHT22;10824;51.632;4.950;2024-01-15T02:48:30;1.90;99.90
21331;DHT22;10824;51.632;4.950;2024-01-15T02:50:59;1.90;99.90
21331;DHT22;10824;51.632;4.950;2024-01-15T02:53:26;1.80;99.90
21331;DHT22;10824;51.632;4.950;2024-01-15T02:55:53;1.80;99.90
21331;DHT22;10824;51.632;4.950;2024-01-15T02:58:22;1.70;99.90
21331;DHT22;10824;51.632;4.950;2024-01-15T03:00:51;1.60;99.90
21331;DHT22;10824;51.632;4.950;2024-01-15T03:03:18;1.60;99.90
21331;DHT22;10824;51.632;4.950;2024-01-15T03:05:46;1.50;99.90
21331;DHT22;10824;51.632;4.950;2024-01-15T03:08:14;1.50;99.90
21331;DHT22;10824;51.632;4.950;2024-01-15T03:10:41;1.50;99.90
21331;DHT22;10824;51.632;4.950;2024-01-15T03:13:08;1.50;99.90
21331;DHT22;10824;51.632;4.950;2024-01-15T03:15:35;1.50;99.90
21331;DHT22;10824;51.632;4.950;2024-01-15T03:18:03;1.40;99.90
21331;DHT22;10824;51.632;4.950;2024-01-15T03:20:32;1.50;99.90
21331;DHT22;10824;51.632;4.950;2024-01-15T03:22:59;1.50;99.90
21331;DHT22;10824;51.632;4.950;2024-01-15T03:25:26;1.60;99.90
21331;DHT22;10824;51.632;4.950;2024-01-15T03:27:53;1.60;99.90
21331;DHT22;10824;51.632;4.950;2024-01-15T03:30:20;1.60;99.90
21331;DHT22;10824;51.632;4.950;2024-01-15T03:32:48;1.60;99.90
21331;DHT22;10824;51.632;4.950;2024-01-15T03:35:18;1.60;99.90
21331;DHT22;10824;51.632;4.950;2024-01-15T03:37:45;1.70;99.90
21331;DHT22;10824;51.632;4.950;2024-01-15T03:40:12;1.70;99.90
21331;DHT22;10824;51.632;4.950;2024-01-15T03:42:40;1.70;99.90
21331;DHT22;10824;51.632;4.950;2024-01-15T03:45:08;1.80;99.90
21331;DHT22;10824;51.632;4.950;2024-01-15T03:47:35;1.80;99.90
21331;DHT22;10824;51.632;4.950;2024-01-15T03:50:03;1.80;99.90
21331;DHT22;10824;51.632;4.950;2024-01-15T03:52:31;1.80;99.90
21331;DHT22;10824;51.632;4.950;2024-01-15T03:54:58;1.70;99.90
21331;DHT22;10824;51.632;4.950;2024-01-15T03:57:26;1.70;99.90
21331;DHT22;10824;51.632;4.950;2024-01-15T03:59:54;1.80;99.90
21331;DHT22;10824;51.632;4.950;2024-01-15T04:02:21;1.80;99.90
21331;DHT22;10824;51.632;4.950;2024-01-15T04:04:48;1.60;99.90
21331;DHT22;10824;51.632;4.950;2024-01-15T04:07:16;1.60;99.90
21331;DHT22;10824;51.632;4.950;2024-01-15T04:09:44;1.50;99.90
21331;DHT22;10824;51.632;4.950;2024-01-15T04:12:11;1.40;99.90
21331;DHT22;10824;51.632;4.950;2024-01-15T04:14:38;1.40;99.90
21331;DHT22;10824;51.632;4.950;2024-01-15T04:17:06;1.40;99.90
21331;DHT22;10824;51.632;4.950;2024-01-15T04:19:33;1.40;99.90
21331;DHT22;10824;51.632;4.950;2024-01-15T04:22:02;1.40;99.90
21331;DHT22;10824;51.632;4.950;2024-01-15T04:24:31;1.30;99.90
21331;DHT22;10824;51.632;4.950;2024-01-15T04:26:59;1.30;99.90
21331;DHT22;10824;51.632;4.950;2024-01-15T04:29:26;1.30;99.90
21331;DHT22;10824;51.632;4.950;2024-01-15T04:32:09;1.30;99.90
21331;DHT22;10824;51.632;4.950;2024-01-15T04:34:41;1.30;99.90
21331;DHT22;10824;51.632;4.950;2024-01-15T04:37:13;1.20;99.90
21331;DHT22;10824;51.632;4.950;2024-01-15T04:39:48;1.20;99.90
21331;DHT22;10824;51.632;4.950;2024-01-15T04:42:24;1.20;99.90
21331;DHT22;10824;51.632;4.950;2024-01-15T04:44:57;1.20;99.90
21331;DHT22;10824;51.632;4.950;2024-01-15T04:47:34;1.20;99.90
21331;DHT22;10824;51.632;4.950;2024-01-15T04:50:06;1.20;99.90
21331;DHT22;10824;51.632;4.950;2024-01-15T04:52:34;1.20;99.90
21331;DHT22;10824;51.632;4.950;2024-01-15T04:55:02;1.20;99.90
21331;DHT22;10824;51.632;4.950;2024-01-15T04:57:29;1.20;99.90
21331;DHT22;10824;51.632;4.950;2024-01-15T04:59:57;1.30;99.90
21331;DHT22;10824;51.632;4.950;2024-01-15T05:02:25;1.30;99.90
21331;DHT22;10824;51.632;4.950;2024-01-15T05:04:53;1.30;99.90
21331;DHT22;10824;51.632;4.950;2024-01-15T05:07:27;1.30;99.90
21331;DHT22;10824;51.632;4.950;2024-01-15T05:09:57;1.30;99.90
21331;DHT22;10824;51.632;4.950;2024-01-15T05:12:25;1.30;99.90
21331;DHT22;10824;51.632;4.950;2024-01-15T05:14:53;1.40;99.90
21331;DHT22;10824;51.632;4.950;2024-01-15T05:17:21;1.20;99.90
21331;DHT22;10824;51.632;4.950;2024-01-15T05:19:49;1.30;99.90
21331;DHT22;10824;51.632;4.950;2024-01-15T05:22:17;1.30;99.90
21331;DHT22;10824;51.632;4.950;2024-01-15T05:24:45;1.30;99.90
21331;DHT22;10824;51.632;4.950;2024-01-15T05:27:12;1.30;99.90
21331;DHT22;10824;51.632;4.950;2024-01-15T05:29:42;1.30;99.90
21331;DHT22;10824;51.632;4.950;2024-01-15T05:32:10;1.30;99.90
21331;DHT22;10824;51.632;4.950;2024-01-15T05:34:37;1.30;99.90
21331;DHT22;10824;51.632;4.950;2024-01-15T05:37:07;1.30;99.90
21331;DHT22;10824;51.632;4.950;2024-01-15T05:39:34;1.30;99.90
21331;DHT22;10824;51.632;4.950;2024-01-15T05:42:02;1.20;99.90
21331;DHT22;10824;51.632;4.950;2024-01-15T05:44:30;1.20;99.90
21331;DHT22;10824;51.632;4.950;2024-01-15T05:46:58;1.20;99.90
21331;DHT22;10824;51.632;4.950;2024-01-15T05:49:42;1.20;99.90
21331;DHT22;10824;51.632;4.950;2024-01-15T05:52:13;1.20;99.90
21331;DHT22;10824;51.632;4.950;2024-01-15T05:54:49;1.30;99.90
21331;DHT22;10824;51.632;4.950;2024-01-15T05:57:17;1.30;99.90
21331;DHT22;10824;51.632;4.950;2024-01-15T05:59:47;1.30;99.90
21331;DHT22;10824;51.632;4.950;2024-01-15T06:02:14;1.20;99.90
21331;DHT22;10824;51.632;4.950;2024-01-15T06:04:50;1.20;99.90
21331;DHT22;10824;51.632;4.950;2024-01-15T06:07:18;1.10;99.90
21331;DHT22;10824;51.632;4.950;2024-01-15T06:09:47;1.20;99.90
21331;DHT22;10824;51.632;4.950;2024-01-15T06:12:16;1.20;99.90
21331;DHT22;10824;51.632;4.950;2024-01-15T06:14:44;1.10;99.90
21331;DHT22;10824;51.632;4.950;2024-01-15T06:17:11;1.10;99.90
21331;DHT22;10824;51.632;4.950;2024-01-15T06:19:38;1.00;99.90
21331;DHT22;10824;51.632;4.950;2024-01-15T06:22:10;1.00;99.90
21331;DHT22;10824;51.632;4.950;2024-01-15T06:24:37;1.00;99.90
21331;DHT22;10824;51.632;4.950;2024-01-15T06:27:05;1.00;99.90
21331;DHT22;10824;51.632;4.950;2024-01-15T06:29:33;0.90;99.90
21331;DHT22;10824;51.632;4.950;2024-01-15T06:32:04;1.00;99.90
21331;DHT22;10824;51.632;4.950;2024-01-15T06:34:32;1.00;99.90
21331;DHT22;10824;51.632;4.950;2024-01-15T06:36:59;1.00;99.90
21331;DHT22;10824;51.632;4.950;2024-01-15T06:39:26;1.00;99.90
21331;DHT22;10824;51.632;4.950;2024-01-15T06:41:53;0.90;99.90
21331;DHT22;10824;51.632;4.950;2024-01-15T06:44:20;0.90;99.90
21331;DHT22;10824;51.632;4.950;2024-01-15T06:46:48;1.00;99.90
21331;DHT22;10824;51.632;4.950;2024-01-15T06:49:15;1.00;99.90
21331;DHT22;10824;51.632;4.950;2024-01-15T06:51:43;0.90;99.90
21331;DHT22;10824;51.632;4.950;2024-01-15T06:54:12;0.90;99.90
21331;DHT22;10824;51.632;4.950;2024-01-15T06:56:40;0.90;99.90
21331;DHT22;10824;51.632;4.950;2024-01-15T06:59:07;1.00;99.90
21331;DHT22;10824;51.632;4.950;2024-01-15T07:01:46;1.10;99.90
21331;DHT22;10824;51.632;4.950;2024-01-15T07:04:13;1.00;99.90
21331;DHT22;10824;51.632;4.950;2024-01-15T07:06:41;1.10;99.90
21331;DHT22;10824;51.632;4.950;2024-01-15T07:09:08;1.10;99.90
21331;DHT22;10824;51.632;4.950;2024-01-15T07:11:36;1.10;99.90
21331;DHT22;10824;51.632;4.950;2024-01-15T07:14:04;1.10;99.90
21331;DHT22;10824;51.632;4.950;2024-01-15T07:16:32;1.10;99.90
21331;DHT22;10824;51.632;4.950;2024-01-15T07:19:04;1.10;99.90
21331;DHT22;10824;51.632;4.950;2024-01-15T07:21:33;1.10;99.90
21331;DHT22;10824;51.632;4.950;2024-01-15T07:24:00;1.10;99.90
21331;DHT22;10824;51.632;4.950;2024-01-15T07:26:30;1.20;99.90
21331;DHT22;10824;51.632;4.950;2024-01-15T07:28:59;1.20;99.90
21331;DHT22;10824;51.632;4.950;2024-01-15T07:31:30;1.20;99.90
21331;DHT22;10824;51.632;4.950;2024-01-15T07:33:59;1.20;99.90
21331;DHT22;10824;51.632;4.950;2024-01-15T07:36:27;1.20;99.90
21331;DHT22;10824;51.632;4.950;2024-01-15T07:38:59;1.30;99.90
21331;DHT22;10824;51.632;4.950;2024-01-15T07:41:26;1.20;99.90
21331;DHT22;10824;51.632;4.950;2024-01-15T07:43:54;1.20;99.90
21331;DHT22;10824;51.632;4.950;2024-01-15T07:46:31;1.30;99.90
21331;DHT22;10824;51.632;4.950;2024-01-15T07:48:59;1.20;99.90
21331;DHT22;10824;51.632;4.950;2024-01-15T07:51:28;1.20;99.90
21331;DHT22;10824;51.632;4.950;2024-01-15T07:53:58;1.20;99.90
21331;DHT22;10824;51.632;4.950;2024-01-15T07:56:26;1.20;99.90
21331;DHT22;10824;51.632;4.950;2024-01-15T07:58:56;1.20;99.90
21331;DHT22;10824;51.632;4.950;2024-01-15T08:01:23;1.20;99.90
21331;DHT22;10824;51.632;4.950;2024-01-15T08:03:52;1.20;99.90
21331;DHT22;10824;51.632;4.950;2024-01-15T08:06:21;1.10;99.90
21331;DHT22;10824;51.632;4.950;2024-01-15T08:08:51;1.20;99.90
21331;DHT22;10824;51.632;4.950;2024-01-15T08:11:18;1.30;99.90
21331;DHT22;10824;51.632;4.950;2024-01-15T08:13:48;1.30;99.90
21331;DHT22;10824;51.632;4.950;2024-01-15T08:16:16;1.20;99.90
21331;DHT22;10824;51.632;4.950;2024-01-15T08:18:46;1.20;99.90
21331;DHT22;10824;51.632;4.950;2024-01-15T08:21:18;1.30;99.90
21331;DHT22;10824;51.632;4.950;2024-01-15T08:23:48;1.30;99.90
21331;DHT22;10824;51.632;4.950;2024-01-15T08:26:19;1.30;99.90
21331;DHT22;10824;51.632;4.950;2024-01-15T08:28:48;1.30;99.90
21331;DHT22;10824;51.632;4.950;2024-01-15T08:31:16;1.30;99.90
21331;DHT22;10824;51.632;4.950;2024-01-15T08:33:44;1.30;99.90
21331;DHT22;10824;51.632;4.950;2024-01-15T08:36:13;1.30;99.90
21331;DHT22;10824;51.632;4.950;2024-01-15T08:38:46;1.30;99.90
21331;DHT22;10824;51.632;4.950;2024-01-15T08:41:16;1.20;99.90
21331;DHT22;10824;51.632;4.950;2024-01-15T08:43:45;1.20;99.90
21331;DHT22;10824;51.632;4.950;2024-01-15T08:46:14;1.20;99.90
21331;DHT22;10824;51.632;4.950;2024-01-15T08:48:43;1.20;99.90
21331;DHT22;10824;51.632;4.950;2024-01-15T08:51:12;1.20;99.90
21331;DHT22;10824;51.632;4.950;2024-01-15T08:53:39;1.30;99.90
21331;DHT22;10824;51.632;4.950;2024-01-15T08:56:10;1.30;99.90
21331;DHT22;10824;51.632;4.950;2024-01-15T08:58:38;1.30;99.90
21331;DHT22;10824;51.632;4.950;2024-01-15T09:01:07;1.30;99.90
21331;DHT22;10824;51.632;4.950;2024-01-15T09:03:34;1.30;99.90
21331;DHT22;10824;51.632;4.950;2024-01-15T09:06:03;1.30;99.90
21331;DHT22;10824;51.632;4.950;2024-01-15T09:08:33;1.20;99.90
21331;DHT22;10824;51.632;4.950;2024-01-15T09:11:06;1.30;99.90
21331;DHT22;10824;51.632;4.950;2024-01-15T09:13:33;1.30;99.90
21331;DHT22;10824;51.632;4.950;2024-01-15T09:16:00;1.30;99.90
21331;DHT22;10824;51.632;4.950;2024-01-15T09:18:30;1.30;99.90
21331;DHT22;10824;51.632;4.950;2024-01-15T09:21:03;1.30;99.90
21331;DHT22;10824;51.632;4.950;2024-01-15T09:23:34;1.30;99.90
21331;DHT22;10824;51.632;4.950;2024-01-15T09:26:02;1.30;99.90
21331;DHT22;10824;51.632;4.950;2024-01-15T09:28:31;1.20;99.90
21331;DHT22;10824;51.632;4.950;2024-01-15T09:31:01;1.30;99.90
21331;DHT22;10824;51.632;4.950;2024-01-15T09:33:29;1.30;99.90
21331;DHT22;10824;51.632;4.950;2024-01-15T09:36:03;1.50;99.90
21331;DHT22;10824;51.632;4.950;2024-01-15T09:38:33;1.50;99.90
21331;DHT22;10824;51.632;4.950;2024-01-15T09:41:06;1.60;99.90
21331;DHT22;10824;51.632;4.950;2024-01-15T09:43:36;1.70;99.90
21331;DHT22;10824;51.632;4.950;2024-01-15T09:46:07;1.80;99.90
21331;DHT22;10824;51.632;4.950;2024-01-15T09:48:35;1.80;99.90
21331;DHT22;10824;51.632;4.950;2024-01-15T09:51:03;1.80;99.90
21331;DHT22;10824;51.632;4.950;2024-01-15T09:53:33;1.80;99.90
21331;DHT22;10824;51.632;4.950;2024-01-15T09:56:04;1.90;99.90
21331;DHT22;10824;51.632;4.950;2024-01-15T09:58:34;1.90;99.90
21331;DHT22;10824;51.632;4.950;2024-01-15T10:01:03;2.00;99.90
21331;DHT22;10824;51.632;4.950;2024-01-15T10:03:37;2.00;99.90
21331;DHT22;10824;51.632;4.950;2024-01-15T10:06:16;2.00;99.90
21331;DHT22;10824;51.632;4.950;2024-01-15T10:08:51;1.90;99.90
21331;DHT22;10824;51.632;4.950;2024-01-15T10:11:22;1.80;99.90
21331;DHT22;10824;51.632;4.950;2024-01-15T10:13:51;1.80;99.90
21331;DHT22;10824;51.632;4.950;2024-01-15T10:16:25;1.90;99.90
21331;DHT22;10824;51.632;4.950;2024-01-15T10:18:54;1.90;99.90
21331;DHT22;10824;51.632;4.950;2024-01-15T10:21:22;1.90;99.90
21331;DHT22;10824;51.632;4.950;2024-01-15T10:23:49;1.90;99.90
21331;DHT22;10824;51.632;4.950;2024-01-15T10:26:25;1.90;99.90
21331;DHT22;10824;51.632;4.950;2024-01-15T10:28:56;1.90;99.90
21331;DHT22;10824;51.632;4.950;2024-01-15T10:31:26;1.90;99.90
21331;DHT22;10824;51.632;4.950;2024-01-15T10:34:14;1.80;99.90
21331;DHT22;10824;51.632;4.950;2024-01-15T10:36:45;1.80;99.90
21331;DHT22;10824;51.632;4.950;2024-01-15T10:39:17;1.70;99.90
21331;DHT22;10824;51.632;4.950;2024-01-15T10:41:44;1.80;99.90
21331;DHT22;10824;51.632;4.950;2024-01-15T10:44:11;1.70;99.90
21331;DHT22;10824;51.632;4.950;2024-01-15T10:46:43;1.80;99.90
21331;DHT22;10824;51.632;4.950;2024-01-15T10:49:13;1.90;99.90
21331;DHT22;10824;51.632;4.950;2024-01-15T10:51:42;1.90;99.90
21331;DHT22;10824;51.632;4.950;2024-01-15T10:54:13;2.00;99.90
21331;DHT22;10824;51.632;4.950;2024-01-15T10:56:46;2.00;99.90
21331;DHT22;10824;51.632;4.950;2024-01-15T10:59:16;1.90;99.90
21331;DHT22;10824;51.632;4.950;2024-01-15T11:01:45;1.80;99.90
21331;DHT22;10824;51.632;4.950;2024-01-15T11:04:13;1.80;99.90
21331;DHT22;10824;51.632;4.950;2024-01-15T11:06:45;1.70;99.90
21331;DHT22;10824;51.632;4.950;2024-01-15T11:09:13;1.60;99.90
21331;DHT22;10824;51.632;4.950;2024-01-15T11:11:44;1.50;99.90
21331;DHT22;10824;51.632;4.950;2024-01-15T11:14:41;1.50;99.90
21331;DHT22;10824;51.632;4.950;2024-01-15T11:17:14;1.50;99.90
21331;DHT22;10824;51.632;4.950;2024-01-15T11:19:43;1.60;99.90
21331;DHT22;10824;51.632;4.950;2024-01-15T11:25:13;1.50;99.90
21331;DHT22;10824;51.632;4.950;2024-01-15T11:27:45;1.60;99.90
21331;DHT22;10824;51.632;4.950;2024-01-15T11:30:15;1.60;99.90
21331;DHT22;10824;51.632;4.950;2024-01-15T11:32:46;1.60;99.90
21331;DHT22;10824;51.632;4.950;2024-01-15T11:35:14;1.50;99.90
21331;DHT22;10824;51.632;4.950;2024-01-15T11:40:20;1.60;99.90
21331;DHT22;10824;51.632;4.950;2024-01-15T11:42:48;1.60;99.90
21331;DHT22;10824;51.632;4.950;2024-01-15T11:45:19;1.60;99.90
21331;DHT22;10824;51.632;4.950;2024-01-15T11:48:15;1.50;99.90
21331;DHT22;10824;51.632;4.950;2024-01-15T11:50:49;1.50;99.90
21331;DHT22;10824;51.632;4.950;2024-01-15T11:53:29;1.60;99.90
21331;DHT22;10824;51.632;4.950;2024-01-15T11:56:02;1.60;99.90
21331;DHT22;10824;51.632;4.950;2024-01-15T11:58:34;1.70;99.90
21331;DHT22;10824;51.632;4.950;2024-01-15T12:01:08;1.70;99.90
21331;DHT22;10824;51.632;4.950;2024-01-15T12:03:36;1.70;99.90
21331;DHT22;10824;51.632;4.950;2024-01-15T12:06:08;1.70;99.90
21331;DHT22;10824;51.632;4.950;2024-01-15T12:08:36;1.70;99.90
21331;DHT22;10824;51.632;4.950;2024-01-15T12:11:10;1.70;99.90
21331;DHT22;10824;51.632;4.950;2024-01-15T12:13:42;1.70;99.90
21331;DHT22;10824;51.632;4.950;2024-01-15T12:16:13;1.70;99.90
21331;DHT22;10824;51.632;4.950;2024-01-15T12:18:44;1.70;99.90
21331;DHT22;10824;51.632;4.950;2024-01-15T12:21:13;1.70;99.90
21331;DHT22;10824;51.632;4.950;2024-01-15T12:23:46;1.90;99.90
21331;DHT22;10824;51.632;4.950;2024-01-15T12:26:18;2.00;99.90
21331;DHT22;10824;51.632;4.950;2024-01-15T12:28:45;2.10;99.90
21331;DHT22;10824;51.632;4.950;2024-01-15T12:31:15;2.00;99.90
21331;DHT22;10824;51.632;4.950;2024-01-15T12:33:44;1.80;99.90
21331;DHT22;10824;51.632;4.950;2024-01-15T12:36:13;1.60;99.90
21331;DHT22;10824;51.632;4.950;2024-01-15T12:38:44;1.60;99.90
21331;DHT22;10824;51.632;4.950;2024-01-15T12:41:12;1.60;99.90
21331;DHT22;10824;51.632;4.950;2024-01-15T12:43:41;1.60;99.90
21331;DHT22;10824;51.632;4.950;2024-01-15T12:46:14;1.70;99.90
21331;DHT22;10824;51.632;4.950;2024-01-15T12:48:42;1.80;99.90
21331;DHT22;10824;51.632;4.950;2024-01-15T12:51:13;1.80;99.90
21331;DHT22;10824;51.632;4.950;2024-01-15T12:53:42;1.90;99.90
21331;DHT22;10824;51.632;4.950;2024-01-15T12:56:11;1.90;99.90
21331;DHT22;10824;51.632;4.950;2024-01-15T12:58:39;1.90;99.90
21331;DHT22;10824;51.632;4.950;2024-01-15T13:01:07;1.90;99.90
21331;DHT22;10824;51.632;4.950;2024-01-15T13:03:35;1.90;99.90
21331;DHT22;10824;51.632;4.950;2024-01-15T13:06:04;1.90;99.90
21331;DHT22;10824;51.632;4.950;2024-01-15T13:08:31;1.90;99.90
21331;DHT22;10824;51.632;4.950;2024-01-15T13:11:03;1.90;99.90
21331;DHT22;10824;51.632;4.950;2024-01-15T13:13:31;1.90;99.90
21331;DHT22;10824;51.632;4.950;2024-01-15T13:16:01;2.00;99.90
21331;DHT22;10824;51.632;4.950;2024-01-15T13:18:30;2.10;99.90
21331;DHT22;10824;51.632;4.950;2024-01-15T13:20:57;2.20;99.90
21331;DHT22;10824;51.632;4.950;2024-01-15T13:23:25;2.20;99.90
21331;DHT22;10824;51.632;4.950;2024-01-15T13:25:52;2.20;99.90
21331;DHT22;10824;51.632;4.950;2024-01-15T13:28:19;2.20;99.90
21331;DHT22;10824;51.632;4.950;2024-01-15T13:30:49;2.20;99.90
21331;DHT22;10824;51.632;4.950;2024-01-15T13:33:17;2.30;99.90
21331;DHT22;10824;51.632;4.950;2024-01-15T13:35:45;2.30;99.90
21331;DHT22;10824;51.632;4.950;2024-01-15T13:38:17;2.40;99.90
21331;DHT22;10824;51.632;4.950;2024-01-15T13:40:45;2.40;99.90
21331;DHT22;10824;51.632;4.950;2024-01-15T13:43:13;2.30;99.90
21331;DHT22;10824;51.632;4.950;2024-01-15T13:45:41;2.10;99.90
21331;DHT22;10824;51.632;4.950;2024-01-15T13:48:12;2.10;99.90
21331;DHT22;10824;51.632;4.950;2024-01-15T13:50:41;2.10;99.90
21331;DHT22;10824;51.632;4.950;2024-01-15T13:53:08;2.10;99.90
21331;DHT22;10824;51.632;4.950;2024-01-15T13:55:36;2.10;99.90
21331;DHT22;10824;51.632;4.950;2024-01-15T13:58:04;2.10;99.90
21331;DHT22;10824;51.632;4.950;2024-01-15T14:00:34;2.10;99.90
21331;DHT22;10824;51.632;4.950;2024-01-15T14:03:01;2.30;99.90
21331;DHT22;10824;51.632;4.950;2024-01-15T14:05:29;2.30;99.90
21331;DHT22;10824;51.632;4.950;2024-01-15T14:07:56;2.40;99.90
21331;DHT22;10824;51.632;4.950;2024-01-15T14:10:23;2.50;99.90
21331;DHT22;10824;51.632;4.950;2024-01-15T14:12:50;2.40;99.90
21331;DHT22;10824;51.632;4.950;2024-01-15T14:15:18;2.40;99.90
21331;DHT22;10824;51.632;4.950;2024-01-15T14:17:48;2.30;99.90
21331;DHT22;10824;51.632;4.950;2024-01-15T14:20:16;2.30;99.90
21331;DHT22;10824;51.632;4.950;2024-01-15T14:22:49;2.30;99.90
21331;DHT22;10824;51.632;4.950;2024-01-15T14:25:16;2.30;99.90
21331;DHT22;10824;51.632;4.950;2024-01-15T14:27:44;2.20;99.90
21331;DHT22;10824;51.632;4.950;2024-01-15T14:30:13;2.30;99.90
21331;DHT22;10824;51.632;4.950;2024-01-15T14:32:45;2.20;99.90
21331;DHT22;10824;51.632;4.950;2024-01-15T14:35:12;2.20;99.90
21331;DHT22;10824;51.632;4.950;2024-01-15T14:37:41;2.20;99.90
21331;DHT22;10824;51.632;4.950;2024-01-15T14:40:10;2.20;99.90
21331;DHT22;10824;51.632;4.950;2024-01-15T14:42:43;2.20;99.90
21331;DHT22;10824;51.632;4.950;2024-01-15T14:45:10;2.10;99.90
21331;DHT22;10824;51.632;4.950;2024-01-15T14:47:44;2.20;99.90
21331;DHT22;10824;51.632;4.950;2024-01-15T14:50:12;2.20;99.90
21331;DHT22;10824;51.632;4.950;2024-01-15T14:52:41;2.30;99.90
21331;DHT22;10824;51.632;4.950;2024-01-15T14:55:09;2.20;99.90
21331;DHT22;10824;51.632;4.950;2024-01-15T14:57:39;2.20;99.90
21331;DHT22;10824;51.632;4.950;2024-01-15T15:00:08;2.10;99.90
21331;DHT22;10824;51.632;4.950;2024-01-15T15:02:38;2.00;99.90
21331;DHT22;10824;51.632;4.950;2024-01-15T15:05:13;2.00;99.90
21331;DHT22;10824;51.632;4.950;2024-01-15T15:07:47;1.90;99.90
21331;DHT22;10824;51.632;4.950;2024-01-15T15:10:16;1.90;99.90
21331;DHT22;10824;51.632;4.950;2024-01-15T15:12:48;1.90;99.90
21331;DHT22;10824;51.632;4.950;2024-01-15T15:15:18;1.80;99.90
21331;DHT22;10824;51.632;4.950;2024-01-15T15:17:49;1.80;99.90
21331;DHT22;10824;51.632;4.950;2024-01-15T15:20:25;1.70;99.90
21331;DHT22;10824;51.632;4.950;2024-01-15T15:22:54;1.70;99.90
21331;DHT22;10824;51.632;4.950;2024-01-15T15:25:22;1.70;99.90
21331;DHT22;10824;51.632;4.950;2024-01-15T15:27:53;1.70;99.90
21331;DHT22;10824;51.632;4.950;2024-01-15T15:30:21;1.70;99.90
21331;DHT22;10824;51.632;4.950;2024-01-15T15:32:48;1.60;99.90
21331;DHT22;10824;51.632;4.950;2024-01-15T15:35:15;1.60;99.90
21331;DHT22;10824;51.632;4.950;2024-01-15T15:37:43;1.60;99.90
21331;DHT22;10824;51.632;4.950;2024-01-15T15:40:17;1.60;99.90
21331;DHT22;10824;51.632;4.950;2024-01-15T15:42:45;1.50;99.90
21331;DHT22;10824;51.632;4.950;2024-01-15T15:45:12;1.60;99.90
21331;DHT22;10824;51.632;4.950;2024-01-15T15:47:45;1.50;99.90
21331;DHT22;10824;51.632;4.950;2024-01-15T15:50:16;1.60;99.90
21331;DHT22;10824;51.632;4.950;2024-01-15T15:52:45;1.60;99.90
21331;DHT22;10824;51.632;4.950;2024-01-15T15:55:12;1.60;99.90
21331;DHT22;10824;51.632;4.950;2024-01-15T15:57:39;1.70;99.90
21331;DHT22;10824;51.632;4.950;2024-01-15T16:00:07;1.80;99.90
21331;DHT22;10824;51.632;4.950;2024-01-15T16:02:38;1.70;99.90